createdAt,value
2022-07-30T00:01:51.693Z,18.50
2022-07-30T00:04:18.846Z,18.50
2022-07-30T00:06:45.737Z,18.40
2022-07-30T00:09:12.536Z,18.40
2022-07-30T00:11:39.389Z,18.40
2022-07-30T00:14:06.240Z,18.40
2022-07-30T00:16:33.264Z,18.40
2022-07-30T00:18:59.999Z,18.40
2022-07-30T00:21:35.554Z,18.40
2022-07-30T00:24:06.147Z,18.40
2022-07-30T00:26:33.119Z,18.40
2022-07-30T00:29:00.120Z,18.40
2022-07-30T00:31:28.754Z,18.40
2022-07-30T00:33:55.699Z,18.40
2022-07-30T00:36:22.742Z,18.50
2022-07-30T00:38:49.747Z,18.40
2022-07-30T00:41:16.687Z,18.40
2022-07-30T00:43:44.263Z,18.40
2022-07-30T00:46:11.404Z,18.40
2022-07-30T00:48:38.730Z,18.30
2022-07-30T00:51:05.688Z,18.30
2022-07-30T00:53:33.849Z,18.40
2022-07-30T00:56:01.534Z,18.40
2022-07-30T00:58:28.659Z,18.50
2022-07-30T01:00:55.887Z,18.60
2022-07-30T01:03:23.623Z,18.60
2022-07-30T01:05:51.401Z,18.60
2022-07-30T01:08:18.598Z,18.60
2022-07-30T01:10:45.419Z,18.60
2022-07-30T01:13:12.994Z,18.60
2022-07-30T01:15:39.902Z,18.50
2022-07-30T01:18:11.398Z,18.50
2022-07-30T01:21:00.712Z,18.50
2022-07-30T01:23:34.866Z,18.50
2022-07-30T01:26:08.580Z,18.50
2022-07-30T01:28:36.734Z,18.40
2022-07-30T01:31:05.636Z,18.40
2022-07-30T01:33:37.254Z,18.30
2022-07-30T01:36:07.514Z,18.30
2022-07-30T01:38:35.849Z,18.20
2022-07-30T01:41:05.098Z,18.20
2022-07-30T01:43:34.835Z,18.30
2022-07-30T01:46:03.311Z,18.20
2022-07-30T01:48:34.902Z,18.20
2022-07-30T01:51:07.261Z,18.20
2022-07-30T01:53:38.078Z,18.10
2022-07-30T01:56:05.738Z,18.00
2022-07-30T01:58:39.936Z,18.00
2022-07-30T02:01:24.978Z,17.90
2022-07-30T02:04:00.191Z,17.90
2022-07-30T02:06:44.739Z,17.90
2022-07-30T02:09:19.944Z,17.80
2022-07-30T02:12:08.815Z,17.80
2022-07-30T02:18:57.065Z,17.70
2022-07-30T02:21:36.681Z,17.60
2022-07-30T02:24:08.707Z,17.50
2022-07-30T02:26:38.093Z,17.50
2022-07-30T02:29:25.622Z,17.50
2022-07-30T02:31:55.898Z,17.40
2022-07-30T02:34:25.099Z,17.40
2022-07-30T02:36:53.102Z,17.40
2022-07-30T02:39:21.742Z,17.30
2022-07-30T02:41:50.248Z,17.30
2022-07-30T02:44:20.120Z,17.30
2022-07-30T02:46:50.054Z,17.30
2022-07-30T02:49:30.359Z,17.30
2022-07-30T02:51:59.698Z,17.30
2022-07-30T02:54:27.691Z,17.30
2022-07-30T02:56:55.785Z,17.30
2022-07-30T02:59:23.870Z,17.30
2022-07-30T03:01:51.917Z,17.30
2022-07-30T03:04:20.936Z,17.30
2022-07-30T03:06:49.610Z,17.20
2022-07-30T03:09:18.330Z,17.20
2022-07-30T03:11:47.497Z,17.20
2022-07-30T03:14:14.288Z,17.20
2022-07-30T03:16:44.406Z,17.20
2022-07-30T03:19:14.329Z,17.20
2022-07-30T03:21:42.057Z,17.20
2022-07-30T03:24:10.081Z,17.20
2022-07-30T03:26:38.176Z,17.20
2022-07-30T03:29:06.518Z,17.20
2022-07-30T03:31:36.398Z,17.20
2022-07-30T03:34:10.354Z,17.20
2022-07-30T03:36:41.486Z,17.10
2022-07-30T03:39:08.609Z,17.10
2022-07-30T03:41:39.788Z,17.00
2022-07-30T03:44:11.423Z,17.00
2022-07-30T03:46:40.360Z,16.90
2022-07-30T03:49:09.662Z,16.80
2022-07-30T03:51:42.442Z,16.80
2022-07-30T03:54:13.803Z,16.80
2022-07-30T03:56:41.063Z,16.80
2022-07-30T03:59:13.747Z,16.80
2022-07-30T04:01:41.476Z,16.70
2022-07-30T04:04:17.526Z,16.70
2022-07-30T04:06:44.317Z,16.70
2022-07-30T04:09:14.728Z,16.70
2022-07-30T04:11:42.222Z,16.70
2022-07-30T04:14:13.442Z,16.80
2022-07-30T04:17:07.159Z,16.80
2022-07-30T04:19:44.781Z,16.80
2022-07-30T04:22:16.140Z,16.80
2022-07-30T04:24:44.956Z,16.80
2022-07-30T04:27:12.576Z,16.80
2022-07-30T04:29:40.937Z,16.80
2022-07-30T04:32:09.586Z,16.80
2022-07-30T04:34:50.397Z,16.80
2022-07-30T04:37:24.876Z,16.80
2022-07-30T04:39:57.752Z,16.80
2022-07-30T04:42:28.800Z,16.80
2022-07-30T04:45:09.266Z,16.90
2022-07-30T04:47:49.068Z,16.90
2022-07-30T04:50:29.751Z,16.90
2022-07-30T04:52:58.681Z,17.00
2022-07-30T04:55:33.894Z,17.00
2022-07-30T04:58:02.632Z,17.10
2022-07-30T05:00:37.722Z,17.10
2022-07-30T05:03:11.642Z,17.10
2022-07-30T05:05:42.279Z,17.10
2022-07-30T05:08:09.457Z,17.10
2022-07-30T05:10:38.391Z,17.10
2022-07-30T05:13:12.129Z,17.10
2022-07-30T05:15:41.256Z,17.20
2022-07-30T05:18:12.102Z,17.20
2022-07-30T05:20:42.311Z,17.20
2022-07-30T05:23:15.958Z,17.20
2022-07-30T05:25:49.100Z,17.20
2022-07-30T05:28:26.688Z,17.10
2022-07-30T05:30:55.270Z,17.00
2022-07-30T05:33:37.252Z,17.00
2022-07-30T05:36:10.753Z,17.00
2022-07-30T05:38:38.914Z,16.90
2022-07-30T05:41:32.855Z,16.90
2022-07-30T05:44:38.857Z,16.90
2022-07-30T05:47:05.959Z,16.90
2022-07-30T05:49:33.120Z,16.90
2022-07-30T05:52:09.333Z,16.90
2022-07-30T05:54:36.835Z,16.90
2022-07-30T05:57:26.779Z,16.90
2022-07-30T05:59:53.706Z,16.90
2022-07-30T06:02:24.722Z,16.90
2022-07-30T06:05:23.652Z,16.90
2022-07-30T06:07:50.846Z,16.90
2022-07-30T06:10:21.086Z,16.90
2022-07-30T06:12:48.085Z,17.00
2022-07-30T06:15:19.470Z,17.00
2022-07-30T06:17:57.238Z,17.00
2022-07-30T06:20:43.592Z,17.00
2022-07-30T06:23:36.633Z,17.10
2022-07-30T06:26:17.635Z,17.10
2022-07-30T06:28:45.571Z,17.20
2022-07-30T06:31:29.486Z,17.30
2022-07-30T06:33:56.736Z,17.30
2022-07-30T06:36:27.641Z,17.40
2022-07-30T06:39:04.488Z,17.50
2022-07-30T06:41:50.322Z,17.50
2022-07-30T06:44:17.311Z,17.70
2022-07-30T06:47:07.825Z,17.70
2022-07-30T06:49:37.634Z,17.80
2022-07-30T06:52:06.148Z,18.00
2022-07-30T06:54:33.519Z,18.10
2022-07-30T06:57:20.527Z,18.30
2022-07-30T06:59:56.139Z,18.50
2022-07-30T07:02:40.039Z,18.60
2022-07-30T07:05:13.957Z,18.80
2022-07-30T07:07:56.492Z,18.90
2022-07-30T07:10:27.783Z,19.00
2022-07-30T07:13:12.685Z,19.20
2022-07-30T07:15:40.206Z,19.40
2022-07-30T07:18:12.785Z,19.60
2022-07-30T07:20:43.559Z,19.70
2022-07-30T07:23:12.431Z,19.80
2022-07-30T07:25:41.087Z,19.90
2022-07-30T07:28:12.280Z,20.00
2022-07-30T07:30:44.433Z,20.00
2022-07-30T07:33:13.335Z,20.00
2022-07-30T07:35:48.655Z,20.10
2022-07-30T07:38:21.153Z,20.10
2022-07-30T07:40:49.982Z,20.20
2022-07-30T07:43:17.362Z,20.30
2022-07-30T07:45:45.658Z,20.30
2022-07-30T07:48:12.950Z,20.30
2022-07-30T07:51:00.336Z,20.40
2022-07-30T07:53:30.531Z,20.40
2022-07-30T07:55:57.967Z,20.40
2022-07-30T07:58:26.441Z,20.40
2022-07-30T08:00:56.710Z,20.30
2022-07-30T08:03:36.142Z,20.30
2022-07-30T08:06:16.001Z,20.30
2022-07-30T08:09:05.999Z,20.30
2022-07-30T08:11:58.045Z,20.30
2022-07-30T08:14:45.292Z,20.40
2022-07-30T08:17:30.503Z,20.40
2022-07-30T08:20:13.047Z,20.50
2022-07-30T08:22:40.143Z,20.60
2022-07-30T08:25:07.759Z,20.60
2022-07-30T08:27:34.717Z,20.70
2022-07-30T08:30:09.018Z,20.70
2022-07-30T08:32:36.149Z,20.70
2022-07-30T08:35:05.817Z,20.80
2022-07-30T08:37:34.336Z,20.70
2022-07-30T08:40:03.448Z,20.70
2022-07-30T08:42:33.995Z,20.70
2022-07-30T08:45:01.021Z,20.70
2022-07-30T08:47:32.509Z,20.70
2022-07-30T08:50:19.421Z,20.70
2022-07-30T08:53:08.432Z,20.70
2022-07-30T08:55:35.358Z,20.70
2022-07-30T08:58:03.331Z,20.80
2022-07-30T09:00:31.511Z,20.80
2022-07-30T09:02:59.011Z,20.80
2022-07-30T09:05:25.873Z,20.80
2022-07-30T09:07:52.656Z,20.70
2022-07-30T09:10:24.710Z,20.70
2022-07-30T09:12:52.079Z,20.70
2022-07-30T09:15:22.341Z,20.60
2022-07-30T09:17:54.509Z,20.60
2022-07-30T09:20:34.129Z,20.60
2022-07-30T09:23:04.160Z,20.60
2022-07-30T09:25:50.001Z,20.60
2022-07-30T09:28:55.470Z,20.70
2022-07-30T09:32:02.924Z,20.80
2022-07-30T09:35:14.765Z,20.90
2022-07-30T09:38:05.965Z,21.00
2022-07-30T09:41:04.846Z,21.00
2022-07-30T09:43:51.631Z,21.10
2022-07-30T09:46:48.078Z,21.10
2022-07-30T09:49:29.422Z,21.00
2022-07-30T09:54:51.644Z,20.90
2022-07-30T09:57:26.642Z,20.90
2022-07-30T10:00:24.055Z,20.90
2022-07-30T10:03:21.852Z,20.80
2022-07-30T10:06:38.094Z,20.70
2022-07-30T10:09:37.560Z,20.70
2022-07-30T10:12:10.501Z,20.60
2022-07-30T10:14:43.853Z,20.50
2022-07-30T10:17:13.474Z,20.50
2022-07-30T10:19:42.741Z,20.50
2022-07-30T10:22:30.025Z,20.50
2022-07-30T10:25:28.062Z,20.60
2022-07-30T10:28:15.448Z,20.50
2022-07-30T10:30:43.789Z,20.50
2022-07-30T10:33:34.239Z,20.60
2022-07-30T10:35:59.493Z,20.70
2022-07-30T10:38:34.288Z,20.80
2022-07-30T10:41:42.603Z,20.90
2022-07-30T10:44:48.920Z,21.00
2022-07-30T10:47:22.902Z,21.00
2022-07-30T10:50:15.609Z,21.00
2022-07-30T10:52:51.215Z,21.00
2022-07-30T10:55:37.274Z,21.00
2022-07-30T10:58:10.116Z,20.90
2022-07-30T11:01:00.530Z,20.90
2022-07-30T11:03:40.685Z,20.90
2022-07-30T11:06:15.025Z,20.80
2022-07-30T11:08:45.152Z,20.80
2022-07-30T11:11:59.163Z,20.80
2022-07-30T11:14:08.233Z,20.90
2022-07-30T11:16:34.992Z,20.90
2022-07-30T11:22:29.762Z,21.00
2022-07-30T11:24:57.215Z,20.80
2022-07-30T11:27:49.008Z,20.70
2022-07-30T11:30:17.712Z,20.60
2022-07-30T11:32:48.928Z,20.60
2022-07-30T11:35:23.641Z,20.60
2022-07-30T11:38:12.163Z,20.60
2022-07-30T11:41:01.556Z,20.60
2022-07-30T11:43:35.825Z,20.50
2022-07-30T11:46:10.936Z,20.60
2022-07-30T11:48:41.832Z,20.60
2022-07-30T11:51:09.985Z,20.60
2022-07-30T11:53:37.188Z,20.60
2022-07-30T11:56:04.226Z,20.60
2022-07-30T11:58:35.421Z,20.60
2022-07-30T12:01:11.743Z,20.60
2022-07-30T12:03:46.254Z,20.70
2022-07-30T12:06:18.386Z,20.80
2022-07-30T12:08:53.896Z,20.90
2022-07-30T12:11:23.330Z,21.00
2022-07-30T12:14:01.905Z,21.10
2022-07-30T12:16:30.935Z,21.10
2022-07-30T12:19:09.447Z,21.20
2022-07-30T12:21:36.823Z,21.30
2022-07-30T12:24:09.883Z,21.40
2022-07-30T12:26:36.739Z,21.30
2022-07-30T12:29:06.647Z,21.20
2022-07-30T12:31:33.948Z,21.20
2022-07-30T12:34:00.978Z,21.30
2022-07-30T12:36:34.028Z,21.40
2022-07-30T12:39:02.497Z,21.60
2022-07-30T12:41:46.799Z,21.60
2022-07-30T12:44:36.966Z,21.60
2022-07-30T12:47:06.197Z,21.50
2022-07-30T12:49:39.179Z,21.40
2022-07-30T12:52:31.317Z,21.30
2022-07-30T12:55:09.840Z,21.20
2022-07-30T12:57:56.204Z,21.10
2022-07-30T13:00:26.250Z,21.10
2022-07-30T13:02:54.659Z,21.10
2022-07-30T13:05:41.765Z,21.10
2022-07-30T13:08:08.703Z,21.10
2022-07-30T13:10:35.614Z,21.20
2022-07-30T13:13:02.412Z,21.10
2022-07-30T13:15:29.369Z,21.10
2022-07-30T13:17:56.193Z,21.10
2022-07-30T13:20:23.269Z,21.20
2022-07-30T13:22:50.027Z,21.40
2022-07-30T13:25:16.859Z,21.50
2022-07-30T13:27:43.861Z,21.60
2022-07-30T13:30:11.037Z,21.60
2022-07-30T13:32:37.839Z,21.60
2022-07-30T13:35:05.310Z,21.60
2022-07-30T13:37:38.154Z,21.50
2022-07-30T13:40:07.027Z,21.40
2022-07-30T13:42:34.026Z,21.50
2022-07-30T13:45:01.002Z,21.50
2022-07-30T13:47:28.329Z,21.40
2022-07-30T13:49:55.070Z,21.40
2022-07-30T13:52:21.826Z,21.40
2022-07-30T13:54:50.766Z,21.40
2022-07-30T13:57:17.815Z,21.30
2022-07-30T13:59:44.577Z,21.30
2022-07-30T14:02:11.402Z,21.40
2022-07-30T14:04:38.144Z,21.50
2022-07-30T14:07:05.657Z,21.50
2022-07-30T14:09:33.132Z,21.50
2022-07-30T14:12:11.483Z,21.60
2022-07-30T14:14:38.446Z,21.50
2022-07-30T14:17:05.435Z,21.60
2022-07-30T14:19:32.425Z,21.50
2022-07-30T14:21:59.273Z,21.40
2022-07-30T14:24:26.070Z,21.30
2022-07-30T14:26:57.792Z,21.20
2022-07-30T14:29:26.297Z,21.10
2022-07-30T14:31:53.472Z,21.00
2022-07-30T14:34:20.465Z,21.00
2022-07-30T14:36:47.183Z,21.00
2022-07-30T14:39:14.850Z,21.00
2022-07-30T14:41:43.370Z,21.00
2022-07-30T14:44:12.301Z,21.00
2022-07-30T14:46:51.797Z,20.90
2022-07-30T14:49:19.934Z,20.80
2022-07-30T14:51:47.060Z,20.80
2022-07-30T14:54:14.521Z,20.80
2022-07-30T14:56:41.887Z,20.80
2022-07-30T14:59:08.767Z,20.80
2022-07-30T15:01:35.537Z,20.70
2022-07-30T15:04:02.688Z,20.70
2022-07-30T15:06:30.206Z,20.80
2022-07-30T15:08:56.952Z,20.80
2022-07-30T15:11:24.379Z,20.90
2022-07-30T15:13:52.564Z,20.90
2022-07-30T15:16:20.069Z,21.00
2022-07-30T15:18:47.308Z,21.10
2022-07-30T15:21:14.227Z,21.10
2022-07-30T15:23:41.186Z,21.20
2022-07-30T15:26:08.120Z,21.30
2022-07-30T15:28:35.209Z,21.50
2022-07-30T15:31:01.994Z,21.60
2022-07-30T15:33:29.152Z,21.70
2022-07-30T15:35:56.366Z,21.80
2022-07-30T15:38:23.236Z,21.80
2022-07-30T15:40:50.057Z,21.90
2022-07-30T15:43:17.162Z,21.90
2022-07-30T15:45:51.230Z,21.80
2022-07-30T15:48:26.705Z,21.80
2022-07-30T15:51:03.070Z,21.80
2022-07-30T15:53:31.429Z,21.90
2022-07-30T15:55:59.272Z,22.00
2022-07-30T15:58:26.566Z,21.90
2022-07-30T16:00:53.470Z,21.80
2022-07-30T16:03:23.878Z,21.80
2022-07-30T16:05:52.959Z,21.70
2022-07-30T16:08:23.244Z,21.60
2022-07-30T16:10:50.246Z,21.50
2022-07-30T16:13:17.827Z,21.40
2022-07-30T16:15:45.506Z,21.30
2022-07-30T16:18:12.428Z,21.20
2022-07-30T16:20:39.553Z,21.10
2022-07-30T16:23:12.638Z,21.00
2022-07-30T16:25:43.843Z,20.90
2022-07-30T16:28:11.725Z,20.80
2022-07-30T16:30:50.532Z,20.70
2022-07-30T16:33:19.444Z,20.70
2022-07-30T16:35:51.173Z,20.70
2022-07-30T16:38:24.220Z,20.60
2022-07-30T16:40:51.653Z,20.60
2022-07-30T16:43:19.792Z,20.60
2022-07-30T16:45:51.265Z,20.50
2022-07-30T16:48:19.004Z,20.50
2022-07-30T16:50:46.074Z,20.50
2022-07-30T16:53:14.512Z,20.50
2022-07-30T16:55:45.903Z,20.50
2022-07-30T16:58:15.032Z,20.50
2022-07-30T17:00:42.180Z,20.50
2022-07-30T17:03:12.070Z,20.40
2022-07-30T17:05:47.868Z,20.40
2022-07-30T17:08:14.947Z,20.40
2022-07-30T17:10:47.875Z,20.50
2022-07-30T17:13:18.652Z,20.50
2022-07-30T17:15:46.932Z,20.50
2022-07-30T17:18:14.763Z,20.40
2022-07-30T17:20:41.628Z,20.40
2022-07-30T17:23:08.976Z,20.40
2022-07-30T17:25:35.834Z,20.40
2022-07-30T17:28:02.607Z,20.40
2022-07-30T17:30:30.161Z,20.30
2022-07-30T17:32:57.000Z,20.30
2022-07-30T17:35:24.778Z,20.30
2022-07-30T17:37:53.362Z,20.30
2022-07-30T17:40:28.924Z,20.30
2022-07-30T17:43:04.224Z,20.30
2022-07-30T17:45:37.449Z,20.20
2022-07-30T17:48:07.609Z,20.20
2022-07-30T17:50:35.223Z,20.20
2022-07-30T17:53:04.063Z,20.20
2022-07-30T17:55:34.990Z,20.20
2022-07-30T17:58:06.272Z,20.10
2022-07-30T18:00:35.328Z,20.10
2022-07-30T18:03:02.706Z,20.10
2022-07-30T18:05:29.921Z,20.10
2022-07-30T18:07:56.929Z,20.00
2022-07-30T18:10:23.870Z,20.00
2022-07-30T18:12:50.711Z,20.00
2022-07-30T18:15:19.250Z,20.00
2022-07-30T18:17:46.363Z,20.00
2022-07-30T18:20:14.310Z,20.10
2022-07-30T18:22:41.499Z,20.00
2022-07-30T18:25:18.784Z,19.90
2022-07-30T18:27:47.671Z,19.90
2022-07-30T18:30:15.269Z,19.80
2022-07-30T18:32:42.285Z,19.70
2022-07-30T18:35:14.190Z,19.60
2022-07-30T18:37:45.890Z,19.60
2022-07-30T18:40:16.947Z,19.50
2022-07-30T18:42:45.446Z,19.40
2022-07-30T18:45:14.078Z,19.30
2022-07-30T18:47:45.232Z,19.30
2022-07-30T18:50:14.579Z,19.10
2022-07-30T18:52:42.066Z,19.10
2022-07-30T18:55:12.120Z,19.00
2022-07-30T18:57:39.596Z,18.90
2022-07-30T19:00:09.606Z,18.80
2022-07-30T19:02:37.648Z,18.70
2022-07-30T19:05:06.490Z,18.70
2022-07-30T19:07:57.070Z,18.60
2022-07-30T19:10:23.447Z,18.60
2022-07-30T19:12:54.347Z,18.50
2022-07-30T19:15:21.298Z,18.40
2022-07-30T19:17:49.291Z,18.40
2022-07-30T19:20:16.122Z,18.30
2022-07-30T19:22:43.610Z,18.30
2022-07-30T19:25:11.149Z,18.20
2022-07-30T19:27:37.893Z,18.20
2022-07-30T19:30:05.587Z,18.20
2022-07-30T19:32:32.562Z,18.10
2022-07-30T19:34:59.323Z,18.00
2022-07-30T19:37:26.257Z,18.00
2022-07-30T19:40:05.418Z,18.00
2022-07-30T19:42:32.851Z,18.00
2022-07-30T19:45:11.119Z,18.00
2022-07-30T19:47:39.862Z,18.00
2022-07-30T19:50:12.504Z,18.00
2022-07-30T19:52:51.068Z,18.00
2022-07-30T19:55:35.042Z,18.00
2022-07-30T19:58:16.401Z,17.90
2022-07-30T20:00:49.434Z,17.90
2022-07-30T20:03:26.041Z,17.90
2022-07-30T20:06:00.949Z,17.90
2022-07-30T20:08:33.922Z,17.90
2022-07-30T20:11:02.276Z,17.90
2022-07-30T20:13:43.895Z,17.80
2022-07-30T20:16:17.299Z,17.80
2022-07-30T20:18:46.209Z,17.80
2022-07-30T20:21:15.391Z,17.80
2022-07-30T20:23:44.675Z,17.70
2022-07-30T20:26:14.967Z,17.70
2022-07-30T20:28:45.680Z,17.70
2022-07-30T20:31:13.021Z,17.70
2022-07-30T20:33:40.567Z,17.70
2022-07-30T20:36:09.910Z,17.70
2022-07-30T20:38:39.006Z,17.60
2022-07-30T20:41:09.975Z,17.60
2022-07-30T20:43:46.274Z,17.50
2022-07-30T20:46:18.554Z,17.50
2022-07-30T20:48:46.204Z,17.50
2022-07-30T20:51:13.219Z,17.40
2022-07-30T20:53:41.795Z,17.40
2022-07-30T20:56:13.316Z,17.30
2022-07-30T20:58:46.066Z,17.30
2022-07-30T21:01:17.707Z,17.30
2022-07-30T21:03:47.853Z,17.20
2022-07-30T21:06:15.934Z,17.20
2022-07-30T21:08:42.868Z,17.20
2022-07-30T21:11:10.015Z,17.20
2022-07-30T21:13:39.687Z,17.20
2022-07-30T21:16:15.903Z,17.20
2022-07-30T21:18:50.226Z,17.20
2022-07-30T21:21:38.190Z,17.20
2022-07-30T21:24:11.269Z,17.10
2022-07-30T21:26:42.145Z,17.10
2022-07-30T21:29:09.668Z,17.00
2022-07-30T21:32:01.378Z,17.00
2022-07-30T21:34:26.477Z,17.00
2022-07-30T21:36:53.782Z,16.90
2022-07-30T21:39:20.588Z,17.00
2022-07-30T21:41:57.024Z,16.90
2022-07-30T21:44:24.572Z,16.90
2022-07-30T21:46:52.847Z,16.90
2022-07-30T21:49:20.849Z,16.90
2022-07-30T21:51:48.327Z,16.90
2022-07-30T21:54:28.640Z,16.80
2022-07-30T21:56:58.330Z,16.80
2022-07-30T21:59:27.598Z,16.80
2022-07-30T22:01:55.914Z,16.80
2022-07-30T22:04:23.908Z,16.80
2022-07-30T22:09:38.861Z,16.80
2022-07-30T22:12:09.792Z,16.90
2022-07-30T22:14:39.978Z,16.80
2022-07-30T22:17:14.769Z,16.80
2022-07-30T22:19:50.183Z,16.80
2022-07-30T22:22:26.286Z,16.80
2022-07-30T22:24:55.174Z,16.70
2022-07-30T22:27:24.188Z,16.70
2022-07-30T22:29:51.086Z,16.70
2022-07-30T22:32:23.806Z,16.70
2022-07-30T22:34:52.031Z,16.70
2022-07-30T22:37:23.365Z,16.70
2022-07-30T22:39:52.372Z,16.60
2022-07-30T22:42:24.427Z,16.60
2022-07-30T22:44:52.476Z,16.50
2022-07-30T22:47:21.820Z,16.40
2022-07-30T22:50:06.660Z,16.40
2022-07-30T22:52:38.998Z,16.30
2022-07-30T22:57:53.914Z,16.20
2022-07-30T23:00:27.487Z,16.10
2022-07-30T23:02:56.123Z,16.10
2022-07-30T23:05:23.629Z,16.10
2022-07-30T23:07:50.915Z,16.10
2022-07-30T23:10:20.452Z,16.10
2022-07-30T23:12:28.283Z,16.80
2022-07-30T23:12:30.762Z,16.30
2022-07-30T23:12:53.567Z,16.10
2022-07-30T23:15:21.156Z,16.10
2022-07-30T23:17:48.052Z,16.00
2022-07-30T23:20:18.453Z,16.00
2022-07-30T23:22:45.884Z,15.90
2022-07-30T23:25:13.883Z,15.90
2022-07-30T23:27:41.395Z,15.80
2022-07-30T23:30:10.244Z,15.80
2022-07-30T23:32:38.057Z,15.80
2022-07-30T23:35:06.200Z,15.70
2022-07-30T23:37:48.668Z,15.70
2022-07-30T23:40:17.520Z,15.70
2022-07-30T23:42:44.767Z,15.70
2022-07-30T23:45:12.189Z,15.70
2022-07-30T23:48:00.192Z,15.70
2022-07-30T23:50:26.047Z,15.70
2022-07-30T23:52:52.915Z,15.80
2022-07-30T23:55:19.786Z,15.80
2022-07-30T23:57:46.550Z,15.80
